Ogema, Canada
Current Conditions -  °F | °C
As of 6:00 PM on Thursday 23 Oct 2014 (Local Time) from CYMJ Reporting Station
Broken Clouds Broken Clouds  
Wind Chill: 59°   Ceiling: 14000
Heat Index: 59°   Visibility: 15mi
Dew Point: 43°   Wind: 14mph
Humidity: 55%   Direction: 200°SSW
Pressure: 29.64"   Gusts: NA
Location:  49.57°N, 104.92°W
Report Text: CYMJ 240000Z 20012KT 15SM BKN140 BKN210 15/06 A2964 RMK AC6CI1SLP048
Loading
Personal Weather Stations






























Interactive Weather Map
Tropical Storm Tracking
New forecast layout! Learn more

10-Day Weather Forecast

Advertisements
Track Severe Weather on mobile